sensor_id;sensor_type;location;lat;lon;timestamp;temperature;humidity
18932;DHT22;9598;50.954;3.112;2024-02-14T00:01:04;10.50;99.90
18932;DHT22;9598;50.954;3.112;2024-02-14T00:06:08;10.40;99.90
18932;DHT22;9598;50.954;3.112;2024-02-14T00:11:14;10.50;99.90
18932;DHT22;9598;50.954;3.112;2024-02-14T00:16:16;10.50;99.90
18932;DHT22;9598;50.954;3.112;2024-02-14T00:21:18;10.50;99.90
18932;DHT22;9598;50.954;3.112;2024-02-14T00:26:22;10.50;99.90
18932;DHT22;9598;50.954;3.112;2024-02-14T00:31:24;10.50;99.90
18932;DHT22;9598;50.954;3.112;2024-02-14T00:36:26;10.50;99.90
18932;DHT22;9598;50.954;3.112;2024-02-14T00:41:30;10.50;99.90
18932;DHT22;9598;50.954;3.112;2024-02-14T00:46:32;10.50;99.90
18932;DHT22;9598;50.954;3.112;2024-02-14T00:51:34;10.50;99.90
18932;DHT22;9598;50.954;3.112;2024-02-14T00:56:39;10.60;99.90
18932;DHT22;9598;50.954;3.112;2024-02-14T01:01:41;10.60;99.90
18932;DHT22;9598;50.954;3.112;2024-02-14T01:06:44;10.60;99.90
18932;DHT22;9598;50.954;3.112;2024-02-14T01:11:47;10.70;99.90
18932;DHT22;9598;50.954;3.112;2024-02-14T01:16:50;10.70;99.90
18932;DHT22;9598;50.954;3.112;2024-02-14T01:21:53;10.70;99.90
18932;DHT22;9598;50.954;3.112;2024-02-14T01:26:57;10.70;99.90
18932;DHT22;9598;50.954;3.112;2024-02-14T01:31:59;10.80;99.90
18932;DHT22;9598;50.954;3.112;2024-02-14T01:37:02;10.80;99.90
18932;DHT22;9598;50.954;3.112;2024-02-14T01:42:05;10.80;99.90
18932;DHT22;9598;50.954;3.112;2024-02-14T01:47:08;10.90;99.90
18932;DHT22;9598;50.954;3.112;2024-02-14T01:52:11;10.80;99.90
18932;DHT22;9598;50.954;3.112;2024-02-14T01:57:15;10.90;99.90
18932;DHT22;9598;50.954;3.112;2024-02-14T02:02:17;10.90;99.90
18932;DHT22;9598;50.954;3.112;2024-02-14T02:07:19;10.90;99.90
18932;DHT22;9598;50.954;3.112;2024-02-14T02:12:23;10.90;99.90
18932;DHT22;9598;50.954;3.112;2024-02-14T02:17:28;11.00;99.90
18932;DHT22;9598;50.954;3.112;2024-02-14T02:22:30;11.00;99.90
18932;DHT22;9598;50.954;3.112;2024-02-14T02:27:34;11.00;99.90
18932;DHT22;9598;50.954;3.112;2024-02-14T02:32:38;11.00;99.90
18932;DHT22;9598;50.954;3.112;2024-02-14T02:37:41;11.00;99.90
18932;DHT22;9598;50.954;3.112;2024-02-14T02:42:44;11.00;99.90
18932;DHT22;9598;50.954;3.112;2024-02-14T02:47:47;11.00;99.90
18932;DHT22;9598;50.954;3.112;2024-02-14T02:52:50;11.00;99.90
18932;DHT22;9598;50.954;3.112;2024-02-14T02:57:54;11.10;99.90
18932;DHT22;9598;50.954;3.112;2024-02-14T03:02:56;11.10;99.90
18932;DHT22;9598;50.954;3.112;2024-02-14T03:07:59;11.10;99.90
18932;DHT22;9598;50.954;3.112;2024-02-14T03:13:03;11.20;99.90
18932;DHT22;9598;50.954;3.112;2024-02-14T03:18:05;11.20;99.90
18932;DHT22;9598;50.954;3.112;2024-02-14T03:23:08;11.20;99.90
18932;DHT22;9598;50.954;3.112;2024-02-14T03:28:13;11.20;99.90
18932;DHT22;9598;50.954;3.112;2024-02-14T03:33:16;11.20;99.90
18932;DHT22;9598;50.954;3.112;2024-02-14T03:38:25;11.20;99.90
18932;DHT22;9598;50.954;3.112;2024-02-14T03:43:28;11.30;99.90
18932;DHT22;9598;50.954;3.112;2024-02-14T03:48:30;11.30;99.90
18932;DHT22;9598;50.954;3.112;2024-02-14T03:53:33;11.30;99.90
18932;DHT22;9598;50.954;3.112;2024-02-14T03:58:36;11.30;99.90
18932;DHT22;9598;50.954;3.112;2024-02-14T04:03:39;11.30;99.90
18932;DHT22;9598;50.954;3.112;2024-02-14T04:08:42;11.30;99.90
18932;DHT22;9598;50.954;3.112;2024-02-14T04:13:45;11.30;99.90
18932;DHT22;9598;50.954;3.112;2024-02-14T04:18:47;11.30;99.90
18932;DHT22;9598;50.954;3.112;2024-02-14T04:23:49;11.30;99.90
18932;DHT22;9598;50.954;3.112;2024-02-14T04:28:53;11.30;99.90
18932;DHT22;9598;50.954;3.112;2024-02-14T04:33:55;11.40;99.90
18932;DHT22;9598;50.954;3.112;2024-02-14T04:38:58;11.40;99.90
18932;DHT22;9598;50.954;3.112;2024-02-14T04:44:01;11.40;99.90
18932;DHT22;9598;50.954;3.112;2024-02-14T04:49:04;11.40;99.90
18932;DHT22;9598;50.954;3.112;2024-02-14T04:54:06;11.40;99.90
18932;DHT22;9598;50.954;3.112;2024-02-14T04:59:10;11.50;99.90
18932;DHT22;9598;50.954;3.112;2024-02-14T05:04:13;11.50;99.90
18932;DHT22;9598;50.954;3.112;2024-02-14T05:09:15;11.50;99.90
18932;DHT22;9598;50.954;3.112;2024-02-14T05:14:19;11.50;99.90
18932;DHT22;9598;50.954;3.112;2024-02-14T05:19:22;11.50;99.90
18932;DHT22;9598;50.954;3.112;2024-02-14T05:24:24;11.50;99.90
18932;DHT22;9598;50.954;3.112;2024-02-14T05:29:29;11.60;99.90
18932;DHT22;9598;50.954;3.112;2024-02-14T05:34:31;11.60;99.90
18932;DHT22;9598;50.954;3.112;2024-02-14T05:39:34;11.60;99.90
18932;DHT22;9598;50.954;3.112;2024-02-14T05:44:38;11.60;99.90
18932;DHT22;9598;50.954;3.112;2024-02-14T05:49:41;11.60;99.90
18932;DHT22;9598;50.954;3.112;2024-02-14T05:54:43;11.60;99.90
18932;DHT22;9598;50.954;3.112;2024-02-14T05:59:47;11.60;99.90
18932;DHT22;9598;50.954;3.112;2024-02-14T06:04:49;11.70;99.90
18932;DHT22;9598;50.954;3.112;2024-02-14T06:09:52;11.70;99.90
18932;DHT22;9598;50.954;3.112;2024-02-14T06:14:55;11.70;99.90
18932;DHT22;9598;50.954;3.112;2024-02-14T06:19:57;11.70;99.90
18932;DHT22;9598;50.954;3.112;2024-02-14T06:24:59;11.70;99.90
18932;DHT22;9598;50.954;3.112;2024-02-14T06:30:03;11.70;99.90
18932;DHT22;9598;50.954;3.112;2024-02-14T06:35:06;11.60;99.90
18932;DHT22;9598;50.954;3.112;2024-02-14T06:40:09;11.60;99.90
18932;DHT22;9598;50.954;3.112;2024-02-14T06:45:12;11.60;99.90
18932;DHT22;9598;50.954;3.112;2024-02-14T06:50:15;11.60;99.90
18932;DHT22;9598;50.954;3.112;2024-02-14T06:55:17;11.60;99.90
18932;DHT22;9598;50.954;3.112;2024-02-14T07:00:21;11.60;99.90
18932;DHT22;9598;50.954;3.112;2024-02-14T07:05:23;11.60;99.90
18932;DHT22;9598;50.954;3.112;2024-02-14T07:10:26;11.60;99.90
18932;DHT22;9598;50.954;3.112;2024-02-14T07:15:30;11.70;99.90
18932;DHT22;9598;50.954;3.112;2024-02-14T07:20:33;11.70;99.90
18932;DHT22;9598;50.954;3.112;2024-02-14T07:25:35;11.70;99.90
18932;DHT22;9598;50.954;3.112;2024-02-14T07:30:39;11.70;99.90
18932;DHT22;9598;50.954;3.112;2024-02-14T07:35:41;11.70;99.90
18932;DHT22;9598;50.954;3.112;2024-02-14T07:40:44;11.70;99.90
18932;DHT22;9598;50.954;3.112;2024-02-14T07:45:47;11.70;99.90
18932;DHT22;9598;50.954;3.112;2024-02-14T07:50:50;11.70;99.90
18932;DHT22;9598;50.954;3.112;2024-02-14T07:55:52;11.60;99.90
18932;DHT22;9598;50.954;3.112;2024-02-14T08:00:57;11.70;99.90
18932;DHT22;9598;50.954;3.112;2024-02-14T08:05:59;11.70;99.90
18932;DHT22;9598;50.954;3.112;2024-02-14T08:11:02;11.70;99.90
18932;DHT22;9598;50.954;3.112;2024-02-14T08:16:06;11.70;99.90
18932;DHT22;9598;50.954;3.112;2024-02-14T08:21:08;11.80;99.90
18932;DHT22;9598;50.954;3.112;2024-02-14T08:26:11;11.80;99.90
18932;DHT22;9598;50.954;3.112;2024-02-14T08:31:14;11.80;99.90
18932;DHT22;9598;50.954;3.112;2024-02-14T08:36:17;11.80;99.90
18932;DHT22;9598;50.954;3.112;2024-02-14T08:41:20;11.90;99.90
18932;DHT22;9598;50.954;3.112;2024-02-14T08:46:25;11.90;99.90
18932;DHT22;9598;50.954;3.112;2024-02-14T08:51:28;11.90;99.90
18932;DHT22;9598;50.954;3.112;2024-02-14T08:56:31;11.90;99.90
18932;DHT22;9598;50.954;3.112;2024-02-14T09:01:35;11.90;99.90
18932;DHT22;9598;50.954;3.112;2024-02-14T09:06:37;11.90;99.90
18932;DHT22;9598;50.954;3.112;2024-02-14T09:11:40;12.00;99.90
18932;DHT22;9598;50.954;3.112;2024-02-14T09:16:44;12.00;99.90
18932;DHT22;9598;50.954;3.112;2024-02-14T09:21:47;12.00;99.90
18932;DHT22;9598;50.954;3.112;2024-02-14T09:26:49;12.00;99.90
18932;DHT22;9598;50.954;3.112;2024-02-14T09:31:53;12.10;99.90
18932;DHT22;9598;50.954;3.112;2024-02-14T09:36:56;12.10;99.90
18932;DHT22;9598;50.954;3.112;2024-02-14T09:41:59;12.10;99.90
18932;DHT22;9598;50.954;3.112;2024-02-14T09:47:05;12.20;99.90
18932;DHT22;9598;50.954;3.112;2024-02-14T09:52:08;12.20;99.90
18932;DHT22;9598;50.954;3.112;2024-02-14T09:57:15;12.30;99.90
18932;DHT22;9598;50.954;3.112;2024-02-14T10:02:19;12.30;99.90
18932;DHT22;9598;50.954;3.112;2024-02-14T10:07:22;12.30;99.90
18932;DHT22;9598;50.954;3.112;2024-02-14T10:12:25;12.40;99.90
18932;DHT22;9598;50.954;3.112;2024-02-14T10:17:29;12.40;99.90
18932;DHT22;9598;50.954;3.112;2024-02-14T10:22:34;12.40;99.90
18932;DHT22;9598;50.954;3.112;2024-02-14T10:27:37;12.50;99.90
18932;DHT22;9598;50.954;3.112;2024-02-14T10:32:41;12.60;99.90
18932;DHT22;9598;50.954;3.112;2024-02-14T10:37:49;12.60;99.90
18932;DHT22;9598;50.954;3.112;2024-02-14T10:42:51;12.60;99.90
18932;DHT22;9598;50.954;3.112;2024-02-14T10:47:56;12.70;99.90
18932;DHT22;9598;50.954;3.112;2024-02-14T10:53:01;12.70;99.90
18932;DHT22;9598;50.954;3.112;2024-02-14T10:58:05;12.70;99.90
18932;DHT22;9598;50.954;3.112;2024-02-14T11:03:10;12.80;99.90
18932;DHT22;9598;50.954;3.112;2024-02-14T11:08:14;12.80;99.90
18932;DHT22;9598;50.954;3.112;2024-02-14T11:13:18;12.90;99.90
18932;DHT22;9598;50.954;3.112;2024-02-14T11:18:26;12.90;99.90
18932;DHT22;9598;50.954;3.112;2024-02-14T11:23:31;12.90;99.90
18932;DHT22;9598;50.954;3.112;2024-02-14T11:28:37;13.00;99.90
18932;DHT22;9598;50.954;3.112;2024-02-14T11:33:41;13.00;99.90
18932;DHT22;9598;50.954;3.112;2024-02-14T11:38:46;13.00;99.90
18932;DHT22;9598;50.954;3.112;2024-02-14T11:43:53;13.10;99.90
18932;DHT22;9598;50.954;3.112;2024-02-14T11:48:56;13.10;99.90
18932;DHT22;9598;50.954;3.112;2024-02-14T11:54:00;13.20;99.90
18932;DHT22;9598;50.954;3.112;2024-02-14T11:59:06;13.20;99.90
18932;DHT22;9598;50.954;3.112;2024-02-14T12:04:11;13.20;99.90
18932;DHT22;9598;50.954;3.112;2024-02-14T12:09:14;13.30;99.90
18932;DHT22;9598;50.954;3.112;2024-02-14T12:14:16;13.30;99.90
18932;DHT22;9598;50.954;3.112;2024-02-14T12:19:26;13.30;99.90
18932;DHT22;9598;50.954;3.112;2024-02-14T12:24:28;13.30;99.90
18932;DHT22;9598;50.954;3.112;2024-02-14T12:29:31;13.30;99.90
18932;DHT22;9598;50.954;3.112;2024-02-14T12:34:38;13.40;99.90
18932;DHT22;9598;50.954;3.112;2024-02-14T12:39:40;13.40;99.90
18932;DHT22;9598;50.954;3.112;2024-02-14T12:44:42;13.40;99.90
18932;DHT22;9598;50.954;3.112;2024-02-14T12:49:47;13.40;99.90
18932;DHT22;9598;50.954;3.112;2024-02-14T12:54:50;13.40;99.90
18932;DHT22;9598;50.954;3.112;2024-02-14T12:59:52;13.40;99.90
18932;DHT22;9598;50.954;3.112;2024-02-14T13:04:57;13.40;99.90
18932;DHT22;9598;50.954;3.112;2024-02-14T13:09:59;13.50;99.90
18932;DHT22;9598;50.954;3.112;2024-02-14T13:15:02;13.50;99.90
18932;DHT22;9598;50.954;3.112;2024-02-14T13:20:07;13.50;99.90
18932;DHT22;9598;50.954;3.112;2024-02-14T13:25:09;13.60;99.90
18932;DHT22;9598;50.954;3.112;2024-02-14T13:30:12;13.60;99.90
18932;DHT22;9598;50.954;3.112;2024-02-14T13:35:15;13.70;99.90
18932;DHT22;9598;50.954;3.112;2024-02-14T13:40:18;13.70;99.90
18932;DHT22;9598;50.954;3.112;2024-02-14T13:45:20;13.70;99.90
18932;DHT22;9598;50.954;3.112;2024-02-14T13:50:24;13.70;99.90
18932;DHT22;9598;50.954;3.112;2024-02-14T13:55:27;13.80;99.90
18932;DHT22;9598;50.954;3.112;2024-02-14T14:00:29;13.80;99.90
18932;DHT22;9598;50.954;3.112;2024-02-14T14:05:32;13.80;99.90
18932;DHT22;9598;50.954;3.112;2024-02-14T14:10:35;13.80;99.90
18932;DHT22;9598;50.954;3.112;2024-02-14T14:15:37;13.80;99.90
18932;DHT22;9598;50.954;3.112;2024-02-14T14:20:41;13.80;99.90
18932;DHT22;9598;50.954;3.112;2024-02-14T14:25:43;13.90;99.90
18932;DHT22;9598;50.954;3.112;2024-02-14T14:30:45;14.00;99.90
18932;DHT22;9598;50.954;3.112;2024-02-14T14:35:49;14.00;99.90
18932;DHT22;9598;50.954;3.112;2024-02-14T14:40:53;14.10;99.90
18932;DHT22;9598;50.954;3.112;2024-02-14T14:45:56;14.10;99.90
18932;DHT22;9598;50.954;3.112;2024-02-14T14:51:00;14.10;99.90
18932;DHT22;9598;50.954;3.112;2024-02-14T14:56:03;14.10;99.90
18932;DHT22;9598;50.954;3.112;2024-02-14T15:01:06;14.10;99.90
18932;DHT22;9598;50.954;3.112;2024-02-14T15:06:11;14.10;99.90
18932;DHT22;9598;50.954;3.112;2024-02-14T15:11:14;14.10;99.90
18932;DHT22;9598;50.954;3.112;2024-02-14T15:16:18;14.10;99.90
18932;DHT22;9598;50.954;3.112;2024-02-14T15:21:23;14.00;99.90
18932;DHT22;9598;50.954;3.112;2024-02-14T15:26:25;14.00;99.90
18932;DHT22;9598;50.954;3.112;2024-02-14T15:31:30;14.00;99.90
18932;DHT22;9598;50.954;3.112;2024-02-14T15:36:51;14.00;99.90
18932;DHT22;9598;50.954;3.112;2024-02-14T15:41:53;14.00;99.90
18932;DHT22;9598;50.954;3.112;2024-02-14T15:46:57;14.00;99.90
18932;DHT22;9598;50.954;3.112;2024-02-14T15:52:00;14.00;99.90
18932;DHT22;9598;50.954;3.112;2024-02-14T15:57:03;14.00;99.90
18932;DHT22;9598;50.954;3.112;2024-02-14T16:02:06;14.00;99.90
18932;DHT22;9598;50.954;3.112;2024-02-14T16:07:09;14.00;99.90
18932;DHT22;9598;50.954;3.112;2024-02-14T16:12:12;14.00;99.90
18932;DHT22;9598;50.954;3.112;2024-02-14T16:17:15;14.10;99.90
18932;DHT22;9598;50.954;3.112;2024-02-14T16:22:18;14.00;99.90
18932;DHT22;9598;50.954;3.112;2024-02-14T16:27:20;14.00;99.90
18932;DHT22;9598;50.954;3.112;2024-02-14T16:32:23;14.00;99.90
18932;DHT22;9598;50.954;3.112;2024-02-14T16:37:27;14.00;99.90
18932;DHT22;9598;50.954;3.112;2024-02-14T16:42:29;14.00;99.90
18932;DHT22;9598;50.954;3.112;2024-02-14T16:47:31;14.00;99.90
18932;DHT22;9598;50.954;3.112;2024-02-14T16:52:36;14.00;99.90
18932;DHT22;9598;50.954;3.112;2024-02-14T16:57:38;13.90;99.90
18932;DHT22;9598;50.954;3.112;2024-02-14T17:02:40;13.90;99.90
18932;DHT22;9598;50.954;3.112;2024-02-14T17:07:46;13.90;99.90
18932;DHT22;9598;50.954;3.112;2024-02-14T17:12:49;13.90;99.90
18932;DHT22;9598;50.954;3.112;2024-02-14T17:17:51;13.80;99.90
18932;DHT22;9598;50.954;3.112;2024-02-14T17:22:55;13.80;99.90
18932;DHT22;9598;50.954;3.112;2024-02-14T17:27:58;13.80;99.90
18932;DHT22;9598;50.954;3.112;2024-02-14T17:33:00;13.80;99.90
18932;DHT22;9598;50.954;3.112;2024-02-14T17:38:06;13.80;99.90
18932;DHT22;9598;50.954;3.112;2024-02-14T17:43:09;13.80;99.90
18932;DHT22;9598;50.954;3.112;2024-02-14T17:48:11;13.80;99.90
18932;DHT22;9598;50.954;3.112;2024-02-14T17:53:16;13.80;99.90
18932;DHT22;9598;50.954;3.112;2024-02-14T17:58:18;13.80;99.90
18932;DHT22;9598;50.954;3.112;2024-02-14T18:03:22;13.80;99.90
18932;DHT22;9598;50.954;3.112;2024-02-14T18:08:28;13.80;99.90
18932;DHT22;9598;50.954;3.112;2024-02-14T18:13:31;13.80;99.90
18932;DHT22;9598;50.954;3.112;2024-02-14T18:18:33;13.80;99.90
18932;DHT22;9598;50.954;3.112;2024-02-14T18:23:38;13.80;99.90
18932;DHT22;9598;50.954;3.112;2024-02-14T18:28:40;13.80;99.90
18932;DHT22;9598;50.954;3.112;2024-02-14T18:33:42;13.80;99.90
18932;DHT22;9598;50.954;3.112;2024-02-14T18:38:45;13.80;99.90
18932;DHT22;9598;50.954;3.112;2024-02-14T18:43:48;13.70;99.90
18932;DHT22;9598;50.954;3.112;2024-02-14T18:48:50;13.70;99.90
18932;DHT22;9598;50.954;3.112;2024-02-14T18:53:54;13.70;99.90
18932;DHT22;9598;50.954;3.112;2024-02-14T18:58:56;13.70;99.90
18932;DHT22;9598;50.954;3.112;2024-02-14T19:03:58;13.70;99.90
18932;DHT22;9598;50.954;3.112;2024-02-14T19:09:05;13.70;99.90
18932;DHT22;9598;50.954;3.112;2024-02-14T19:14:10;13.70;99.90
18932;DHT22;9598;50.954;3.112;2024-02-14T19:19:13;13.70;99.90
18932;DHT22;9598;50.954;3.112;2024-02-14T19:24:17;13.70;99.90
18932;DHT22;9598;50.954;3.112;2024-02-14T19:29:20;13.70;99.90
18932;DHT22;9598;50.954;3.112;2024-02-14T19:34:24;13.60;99.90
18932;DHT22;9598;50.954;3.112;2024-02-14T19:39:28;13.60;99.90
18932;DHT22;9598;50.954;3.112;2024-02-14T19:44:32;13.60;99.90
18932;DHT22;9598;50.954;3.112;2024-02-14T19:49:34;13.70;99.90
18932;DHT22;9598;50.954;3.112;2024-02-14T19:54:38;13.70;99.90
18932;DHT22;9598;50.954;3.112;2024-02-14T19:59:41;13.70;99.90
18932;DHT22;9598;50.954;3.112;2024-02-14T20:04:43;13.70;99.90
18932;DHT22;9598;50.954;3.112;2024-02-14T20:09:48;13.70;99.90
18932;DHT22;9598;50.954;3.112;2024-02-14T20:14:50;13.70;99.90
18932;DHT22;9598;50.954;3.112;2024-02-14T20:19:52;13.70;99.90
18932;DHT22;9598;50.954;3.112;2024-02-14T20:24:55;13.70;99.90
18932;DHT22;9598;50.954;3.112;2024-02-14T20:29:58;13.70;99.90
18932;DHT22;9598;50.954;3.112;2024-02-14T20:35:00;13.70;99.90
18932;DHT22;9598;50.954;3.112;2024-02-14T20:40:06;13.70;99.90
18932;DHT22;9598;50.954;3.112;2024-02-14T20:45:09;13.60;99.90
18932;DHT22;9598;50.954;3.112;2024-02-14T20:50:13;13.60;99.90
18932;DHT22;9598;50.954;3.112;2024-02-14T20:55:16;13.60;99.90
18932;DHT22;9598;50.954;3.112;2024-02-14T21:00:19;13.60;99.90
18932;DHT22;9598;50.954;3.112;2024-02-14T21:05:22;13.60;99.90
18932;DHT22;9598;50.954;3.112;2024-02-14T21:10:27;13.60;99.90
18932;DHT22;9598;50.954;3.112;2024-02-14T21:15:31;13.60;99.90
18932;DHT22;9598;50.954;3.112;2024-02-14T21:20:33;13.60;99.90
18932;DHT22;9598;50.954;3.112;2024-02-14T21:25:38;13.60;99.90
18932;DHT22;9598;50.954;3.112;2024-02-14T21:30:40;13.60;99.90
18932;DHT22;9598;50.954;3.112;2024-02-14T21:35:43;13.60;99.90
18932;DHT22;9598;50.954;3.112;2024-02-14T21:40:48;13.60;99.90
18932;DHT22;9598;50.954;3.112;2024-02-14T21:45:50;13.70;99.90
18932;DHT22;9598;50.954;3.112;2024-02-14T21:50:53;13.60;99.90
18932;DHT22;9598;50.954;3.112;2024-02-14T21:55:57;13.70;99.90
18932;DHT22;9598;50.954;3.112;2024-02-14T22:00:59;13.60;99.90
18932;DHT22;9598;50.954;3.112;2024-02-14T22:06:02;13.60;99.90
18932;DHT22;9598;50.954;3.112;2024-02-14T22:11:08;13.60;99.90
18932;DHT22;9598;50.954;3.112;2024-02-14T22:16:11;13.50;99.90
18932;DHT22;9598;50.954;3.112;2024-02-14T22:21:14;13.40;99.90
18932;DHT22;9598;50.954;3.112;2024-02-14T22:26:17;13.40;99.90
18932;DHT22;9598;50.954;3.112;2024-02-14T22:31:19;13.40;99.90
18932;DHT22;9598;50.954;3.112;2024-02-14T22:36:22;13.40;99.90
18932;DHT22;9598;50.954;3.112;2024-02-14T22:41:26;13.40;99.90
18932;DHT22;9598;50.954;3.112;2024-02-14T22:46:28;13.30;99.90
18932;DHT22;9598;50.954;3.112;2024-02-14T22:51:31;13.30;99.90
18932;DHT22;9598;50.954;3.112;2024-02-14T22:56:35;13.30;99.90
18932;DHT22;9598;50.954;3.112;2024-02-14T23:01:37;13.30;99.90
18932;DHT22;9598;50.954;3.112;2024-02-14T23:06:41;13.30;99.90
18932;DHT22;9598;50.954;3.112;2024-02-14T23:11:44;13.30;99.90
18932;DHT22;9598;50.954;3.112;2024-02-14T23:16:47;13.30;99.90
18932;DHT22;9598;50.954;3.112;2024-02-14T23:21:49;13.40;99.90
18932;DHT22;9598;50.954;3.112;2024-02-14T23:26:53;13.40;99.90
18932;DHT22;9598;50.954;3.112;2024-02-14T23:31:56;13.40;99.90
18932;DHT22;9598;50.954;3.112;2024-02-14T23:37:00;13.40;99.90
18932;DHT22;9598;50.954;3.112;2024-02-14T23:42:04;13.40;99.90
18932;DHT22;9598;50.954;3.112;2024-02-14T23:47:06;13.40;99.90
18932;DHT22;9598;50.954;3.112;2024-02-14T23:52:08;13.40;99.90
18932;DHT22;9598;50.954;3.112;2024-02-14T23:57:12;13.50;99.90
